Time,TemperatureF,DewpointF,PressureIn,WindDirection,WindDirectionDegrees,WindSpeedMPH,WindSpeedGustMPH,Humidity,HourlyPrecipIn,Conditions,Clouds,dailyrainin,SoftwareType,DateUTC
2013-01-08 00:17:00,36.1,31.0,0.00,NNE,29,1.0,-999.0,82,-99.99,,,0.00,weatherlink.com 1.10,2013-01-08 05:17:00,
2013-01-08 00:32:00,33.5,27.0,0.00,South,175,1.0,-999.0,78,-99.99,,,0.00,weatherlink.com 1.10,2013-01-08 05:32:00,
2013-01-08 00:47:00,32.8,27.0,0.00,NNE,21,0.0,-999.0,80,-99.99,,,0.00,weatherlink.com 1.10,2013-01-08 05:47:00,
2013-01-08 01:02:00,31.4,27.0,0.00,NE,48,0.0,-999.0,82,-99.99,,,0.00,weatherlink.com 1.10,2013-01-08 06:02:00,
2013-01-08 01:17:00,33.5,31.0,0.00,NNW,337,4.0,-999.0,89,-99.99,,,0.00,weatherlink.com 1.10,2013-01-08 06:17:00,
2013-01-08 01:32:00,35.9,32.0,0.00,NW,304,9.0,-999.0,87,-99.99,,,0.00,weatherlink.com 1.10,2013-01-08 06:32:00,
2013-01-08 01:47:00,35.4,31.0,0.00,NNW,339,6.0,-999.0,84,-99.99,,,0.00,weatherlink.com 1.10,2013-01-08 06:47:00,
2013-01-08 02:02:00,34.3,29.0,0.00,NNW,342,3.0,-999.0,82,-99.99,,,0.00,weatherlink.com 1.10,2013-01-08 07:02:00,
2013-01-08 02:17:00,33.7,29.0,0.00,NW,306,6.0,-999.0,83,-99.99,,,0.00,weatherlink.com 1.10,2013-01-08 07:17:00,
2013-01-08 02:32:00,33.1,27.0,0.00,WNW,302,3.0,-999.0,77,-99.99,,,0.00,weatherlink.com 1.10,2013-01-08 07:32:00,
2013-01-08 02:47:00,33.5,29.0,0.00,WNW,301,4.0,-999.0,84,-99.99,,,0.00,weatherlink.com 1.10,2013-01-08 07:47:00,
2013-01-08 03:02:00,33.9,30.0,0.00,NNW,346,3.0,-999.0,86,-99.99,,,0.00,weatherlink.com 1.10,2013-01-08 08:02:00,
2013-01-08 03:17:00,33.1,29.0,0.00,NNE,21,0.0,-999.0,83,-99.99,,,0.00,weatherlink.com 1.10,2013-01-08 08:17:00,
2013-01-08 03:32:00,33.8,30.0,0.00,North,351,4.0,-999.0,85,-99.99,,,0.00,weatherlink.com 1.10,2013-01-08 08:32:00,
2013-01-08 03:47:00,33.5,29.0,0.00,NNW,346,3.0,-999.0,82,-99.99,,,0.00,weatherlink.com 1.10,2013-01-08 08:47:00,
2013-01-08 04:02:00,33.5,27.0,0.00,NW,304,4.0,-999.0,78,-99.99,,,0.00,weatherlink.com 1.10,2013-01-08 09:02:00,
2013-01-08 04:17:00,34.5,31.0,0.00,WNW,285,7.0,-999.0,86,-99.99,,,0.00,weatherlink.com 1.10,2013-01-08 09:17:00,
2013-01-08 04:32:00,34.0,31.0,0.00,WNW,293,4.0,-999.0,87,-99.99,,,0.00,weatherlink.com 1.10,2013-01-08 09:32:00,
2013-01-08 04:47:00,32.5,27.0,0.00,WNW,298,5.0,-999.0,81,-99.99,,,0.00,weatherlink.com 1.10,2013-01-08 09:47:00,
2013-01-08 05:02:00,32.2,27.0,0.00,NW,325,4.0,-999.0,81,-99.99,,,0.00,weatherlink.com 1.10,2013-01-08 10:02:00,
2013-01-08 05:17:00,32.1,27.0,0.00,NW,309,4.0,-999.0,80,-99.99,,,0.00,weatherlink.com 1.10,2013-01-08 10:17:00,
2013-01-08 05:32:00,32.1,27.0,0.00,NNW,340,3.0,-999.0,80,-99.99,,,0.00,weatherlink.com 1.10,2013-01-08 10:32:00,
2013-01-08 05:47:00,31.9,26.0,0.00,North,352,2.0,-999.0,78,-99.99,,,0.00,weatherlink.com 1.10,2013-01-08 10:47:00,
2013-01-08 06:02:00,32.1,26.0,0.00,NNE,29,0.0,-999.0,79,-99.99,,,0.00,weatherlink.com 1.10,2013-01-08 11:02:00,
2013-01-08 06:17:00,30.9,26.0,0.00,North,7,0.0,-999.0,83,-99.99,,,0.00,weatherlink.com 1.10,2013-01-08 11:17:00,
2013-01-08 06:32:00,32.2,29.0,0.00,NW,308,4.0,-999.0,89,-99.99,,,0.00,weatherlink.com 1.10,2013-01-08 11:32:00,
2013-01-08 06:47:00,30.4,26.0,0.00,NNE,33,0.0,-999.0,83,-99.99,,,0.00,weatherlink.com 1.10,2013-01-08 11:47:00,
2013-01-08 07:02:00,31.7,29.0,0.00,NNW,336,5.0,-999.0,88,-99.99,,,0.00,weatherlink.com 1.10,2013-01-08 12:02:00,
2013-01-08 07:17:00,31.3,27.0,0.00,North,359,2.0,-999.0,84,-99.99,,,0.00,weatherlink.com 1.10,2013-01-08 12:17:00,
2013-01-08 07:32:00,32.6,29.0,0.00,NNW,332,6.0,-999.0,87,-99.99,,,0.00,weatherlink.com 1.10,2013-01-08 12:32:00,
2013-01-08 07:48:00,33.3,31.0,0.00,North,351,4.0,-999.0,90,-99.99,,,0.00,weatherlink.com 1.10,2013-01-08 12:48:00,
2013-01-08 08:03:00,32.8,29.0,0.00,NNW,332,5.0,-999.0,86,-99.99,,,0.00,weatherlink.com 1.10,2013-01-08 13:03:00,
2013-01-08 08:18:00,32.2,27.0,0.00,SW,234,0.0,-999.0,82,-99.99,,,0.00,weatherlink.com 1.10,2013-01-08 13:18:00,
2013-01-08 08:33:00,32.8,29.0,0.00,West,278,5.0,-999.0,87,-99.99,,,0.00,weatherlink.com 1.10,2013-01-08 13:33:00,
2013-01-08 08:48:00,33.7,31.0,0.00,NW,306,4.0,-999.0,90,-99.99,,,0.00,weatherlink.com 1.10,2013-01-08 13:48:00,
2013-01-08 09:03:00,33.6,31.0,0.00,West,279,4.0,-999.0,89,-99.99,,,0.00,weatherlink.com 1.10,2013-01-08 14:03:00,
2013-01-08 09:18:00,33.7,31.0,0.00,WNW,290,6.0,-999.0,90,-99.99,,,0.00,weatherlink.com 1.10,2013-01-08 14:18:00,
2013-01-08 09:33:00,34.9,32.0,0.00,WNW,296,10.0,-999.0,90,-99.99,,,0.00,weatherlink.com 1.10,2013-01-08 14:33:00,
2013-01-08 09:48:00,35.6,32.0,0.00,West,269,5.0,-999.0,85,-99.99,,,0.00,weatherlink.com 1.10,2013-01-08 14:48:00,
2013-01-08 10:03:00,35.9,32.0,0.00,WSW,256,6.0,-999.0,85,-99.99,,,0.00,weatherlink.com 1.10,2013-01-08 15:03:00,
2013-01-08 10:18:00,36.7,33.0,0.00,WNW,302,6.0,-999.0,87,-99.99,,,0.00,weatherlink.com 1.10,2013-01-08 15:18:00,
2013-01-08 10:33:00,37.3,33.0,0.00,NW,306,6.0,-999.0,83,-99.99,,,0.00,weatherlink.com 1.10,2013-01-08 15:33:00,
2013-01-08 10:48:00,38.0,33.0,0.00,West,281,5.0,-999.0,81,-99.99,,,0.00,weatherlink.com 1.10,2013-01-08 15:48:00,
2013-01-08 11:03:00,39.4,34.0,0.00,WNW,287,5.0,-999.0,80,-99.99,,,0.00,weatherlink.com 1.10,2013-01-08 16:03:00,
2013-01-08 11:18:00,41.7,35.0,0.00,NW,306,3.0,-999.0,76,-99.99,,,0.00,weatherlink.com 1.10,2013-01-08 16:18:00,
2013-01-08 11:33:00,43.3,38.0,0.00,NNW,331,5.0,-999.0,82,-99.99,,,0.00,weatherlink.com 1.10,2013-01-08 16:33:00,
2013-01-08 11:48:00,44.5,35.0,0.00,NW,311,5.0,-999.0,69,-99.99,,,0.00,weatherlink.com 1.10,2013-01-08 16:48:00,
2013-01-08 12:03:00,46.6,33.0,0.00,North,354,1.0,-999.0,60,-99.99,,,0.00,weatherlink.com 1.10,2013-01-08 17:03:00,
2013-01-08 12:18:00,47.9,33.0,0.00,West,280,3.0,-999.0,57,-99.99,,,0.00,weatherlink.com 1.10,2013-01-08 17:18:00,
2013-01-08 12:33:00,48.2,33.0,0.00,WNW,282,10.0,-999.0,56,-99.99,,,0.00,weatherlink.com 1.10,2013-01-08 17:33:00,
2013-01-08 12:48:00,48.6,35.0,0.00,NNW,342,4.0,-999.0,60,-99.99,,,0.00,weatherlink.com 1.10,2013-01-08 17:48:00,
2013-01-08 13:03:00,49.1,33.0,0.00,WNW,293,4.0,-999.0,55,-99.99,,,0.00,weatherlink.com 1.10,2013-01-08 18:03:00,
2013-01-08 13:18:00,49.0,34.0,0.00,WNW,301,4.0,-999.0,56,-99.99,,,0.00,weatherlink.com 1.10,2013-01-08 18:18:00,
2013-01-08 13:33:00,49.8,34.0,0.00,West,263,3.0,-999.0,55,-99.99,,,0.00,weatherlink.com 1.10,2013-01-08 18:33:00,
2013-01-08 13:48:00,49.5,33.0,0.00,ENE,60,5.0,-999.0,53,-99.99,,,0.00,weatherlink.com 1.10,2013-01-08 18:48:00,
2013-01-08 14:03:00,49.9,33.0,0.00,WNW,289,5.0,-999.0,53,-99.99,,,0.00,weatherlink.com 1.10,2013-01-08 19:03:00,
2013-01-08 14:18:00,50.3,34.0,0.00,West,279,7.0,-999.0,53,-99.99,,,0.00,weatherlink.com 1.10,2013-01-08 19:18:00,
2013-01-08 14:33:00,50.3,34.0,0.00,NNW,332,3.0,-999.0,53,-99.99,,,0.00,weatherlink.com 1.10,2013-01-08 19:33:00,
2013-01-08 14:48:00,50.8,34.0,0.00,NNW,337,3.0,-999.0,52,-99.99,,,0.00,weatherlink.com 1.10,2013-01-08 19:48:00,
2013-01-08 15:03:00,51.6,37.0,0.00,NE,46,3.0,-999.0,57,-99.99,,,0.00,weatherlink.com 1.10,2013-01-08 20:03:00,
2013-01-08 15:18:00,52.2,35.0,0.00,NNE,15,2.0,-999.0,53,-99.99,,,0.00,weatherlink.com 1.10,2013-01-08 20:18:00,
2013-01-08 15:33:00,52.8,35.0,0.00,NNW,342,2.0,-999.0,51,-99.99,,,0.00,weatherlink.com 1.10,2013-01-08 20:33:00,
2013-01-08 15:48:00,53.2,39.0,0.00,NW,325,2.0,-999.0,58,-99.99,,,0.00,weatherlink.com 1.10,2013-01-08 20:48:00,
2013-01-08 16:03:00,53.3,37.0,0.00,North,356,4.0,-999.0,54,-99.99,,,0.00,weatherlink.com 1.10,2013-01-08 21:03:00,
2013-01-08 16:18:00,52.9,34.0,0.00,NNW,337,4.0,-999.0,49,-99.99,,,0.00,weatherlink.com 1.10,2013-01-08 21:18:00,
2013-01-08 16:33:00,52.0,34.0,0.00,WSW,245,4.0,-999.0,50,-99.99,,,0.00,weatherlink.com 1.10,2013-01-08 21:33:00,
2013-01-08 16:48:00,52.0,34.0,0.00,WNW,295,5.0,-999.0,51,-99.99,,,0.00,weatherlink.com 1.10,2013-01-08 21:48:00,
2013-01-08 17:03:00,51.8,34.0,0.00,NW,308,2.0,-999.0,52,-99.99,,,0.00,weatherlink.com 1.10,2013-01-08 22:03:00,
2013-01-08 17:18:00,51.6,35.0,0.00,WNW,298,2.0,-999.0,53,-99.99,,,0.00,weatherlink.com 1.10,2013-01-08 22:18:00,
2013-01-08 17:33:00,51.2,34.0,0.00,WNW,295,1.0,-999.0,53,-99.99,,,0.00,weatherlink.com 1.10,2013-01-08 22:33:00,
2013-01-08 17:48:00,50.9,35.0,0.00,WNW,302,3.0,-999.0,55,-99.99,,,0.00,weatherlink.com 1.10,2013-01-08 22:48:00,
2013-01-08 18:03:00,50.5,34.0,0.00,North,350,1.0,-999.0,54,-99.99,,,0.00,weatherlink.com 1.10,2013-01-08 23:03:00,
2013-01-08 18:18:00,50.1,35.0,0.00,NNW,333,4.0,-999.0,57,-99.99,,,0.00,weatherlink.com 1.10,2013-01-08 23:18:00,
2013-01-08 18:33:00,50.3,35.0,0.00,WNW,302,6.0,-999.0,57,-99.99,,,0.00,weatherlink.com 1.10,2013-01-08 23:33:00,
2013-01-08 18:48:00,50.6,37.0,0.00,NW,310,5.0,-999.0,59,-99.99,,,0.00,weatherlink.com 1.10,2013-01-08 23:48:00,
2013-01-08 19:03:00,50.4,39.0,0.00,NNW,339,5.0,-999.0,66,-99.99,,,0.00,weatherlink.com 1.10,2013-01-09 00:03:00,
2013-01-08 19:18:00,50.9,42.0,0.00,West,270,5.0,-999.0,72,-99.99,,,0.00,weatherlink.com 1.10,2013-01-09 00:18:00,
2013-01-08 19:34:00,50.5,40.0,0.00,West,276,3.0,-999.0,68,-99.99,,,0.00,weatherlink.com 1.10,2013-01-09 00:34:00,
2013-01-08 19:49:00,49.8,41.0,0.00,NNW,333,5.0,-999.0,72,-99.99,,,0.00,weatherlink.com 1.10,2013-01-09 00:49:00,
2013-01-08 20:04:00,48.9,40.0,0.00,NNW,333,4.0,-999.0,72,-99.99,,,0.00,weatherlink.com 1.10,2013-01-09 01:04:00,
2013-01-08 20:19:00,48.4,39.0,0.00,NW,305,4.0,-999.0,69,-99.99,,,0.00,weatherlink.com 1.10,2013-01-09 01:19:00,
2013-01-08 20:34:00,48.1,39.0,0.00,NW,304,4.0,-999.0,72,-99.99,,,0.00,weatherlink.com 1.10,2013-01-09 01:34:00,
2013-01-08 20:49:00,47.6,39.0,0.00,WNW,300,4.0,-999.0,71,-99.99,,,0.00,weatherlink.com 1.10,2013-01-09 01:49:00,
2013-01-08 21:04:00,46.4,38.0,0.00,NNW,335,4.0,-999.0,73,-99.99,,,0.00,weatherlink.com 1.10,2013-01-09 02:04:00,
2013-01-08 21:19:00,46.1,39.0,0.00,WNW,291,5.0,-999.0,75,-99.99,,,0.00,weatherlink.com 1.10,2013-01-09 02:19:00,
2013-01-08 21:34:00,46.7,41.0,0.00,NW,309,5.0,-999.0,80,-99.99,,,0.00,weatherlink.com 1.10,2013-01-09 02:34:00,
2013-01-08 21:49:00,46.5,39.0,0.00,WNW,287,5.0,-999.0,76,-99.99,,,0.00,weatherlink.com 1.10,2013-01-09 02:49:00,
2013-01-08 22:04:00,46.0,38.0,0.00,WNW,298,4.0,-999.0,74,-99.99,,,0.00,weatherlink.com 1.10,2013-01-09 03:04:00,
2013-01-08 22:19:00,45.6,38.0,0.00,WNW,300,6.0,-999.0,76,-99.99,,,0.00,weatherlink.com 1.10,2013-01-09 03:19:00,
2013-01-08 22:34:00,45.1,39.0,0.00,NNW,337,5.0,-999.0,79,-99.99,,,0.00,weatherlink.com 1.10,2013-01-09 03:34:00,
2013-01-08 22:49:00,45.4,40.0,0.00,North,352,3.0,-999.0,81,-99.99,,,0.00,weatherlink.com 1.10,2013-01-09 03:49:00,
2013-01-08 23:04:00,44.4,40.0,0.00,NNW,344,4.0,-999.0,83,-99.99,,,0.00,weatherlink.com 1.10,2013-01-09 04:04:00,
2013-01-08 23:19:00,43.6,36.0,0.00,West,269,8.0,-999.0,75,-99.99,,,0.00,weatherlink.com 1.10,2013-01-09 04:19:00,
2013-01-08 23:34:00,43.5,37.0,0.00,NNW,333,4.0,-999.0,77,-99.99,,,0.00,weatherlink.com 1.10,2013-01-09 04:34:00,
2013-01-08 23:49:00,44.7,39.0,0.00,WNW,293,5.0,-999.0,80,-99.99,,,0.00,weatherlink.com 1.10,2013-01-09 04:49:00,